Time;durP1;ratioP1;P1;durP2;ratioP2;P2;SDS_P1;SDS_P2;PMS_P1;PMS_P2;Temp;Humidity;BMP_temperature;BMP_pressure;BME280_temperature;BME280_humidity;BME280_pressure;Samples;Min_cycle;Max_cycle;Signal;HPM_P1;HPM_P2
2021/09/28 00:00:44;;;;;;;12.60;1.63;;;;;;;;;;4936265;29;20035;-71
2021/09/28 00:03:10;;;;;;;16.80;2.60;;;;;;;;;;4933408;29;20031;-71
2021/09/28 00:05:36;;;;;;;15.27;2.30;;;;;;;;;;4935525;29;20032;-71
2021/09/28 00:08:02;;;;;;;17.63;2.70;;;;;;;;;;4936703;28;20031;-72
2021/09/28 00:10:28;;;;;;;13.95;2.53;;;;;;;;;;4936207;29;20091;-71
2021/09/28 00:12:55;;;;;;;17.35;2.53;;;;;;;;;;4934398;29;20035;-71
2021/09/28 00:15:21;;;;;;;15.73;2.50;;;;;;;;;;4933681;29;20559;-71
2021/09/28 00:17:47;;;;;;;17.20;3.10;;;;;;;;;;4935695;29;20024;-71
2021/09/28 00:20:13;;;;;;;19.38;4.80;;;;;;;;;;4938061;29;20024;-71
2021/09/28 00:22:40;;;;;;;11.45;2.45;;;;;;;;;;4933554;29;20032;-71
2021/09/28 00:25:07;;;;;;;24.98;3.60;;;;;;;;;;4937637;29;20031;-71
2021/09/28 00:27:33;;;;;;;19.45;3.95;;;;;;;;;;4933444;29;20126;-71
2021/09/28 00:30:00;;;;;;;12.07;2.67;;;;;;;;;;4935912;29;20440;-71
2021/09/28 00:32:26;;;;;;;21.05;4.50;;;;;;;;;;4941719;29;20028;-71
2021/09/28 00:34:52;;;;;;;14.55;2.20;;;;;;;;;;4923738;29;20405;-72
2021/09/28 00:37:19;;;;;;;16.08;2.72;;;;;;;;;;4938825;29;20043;-71
2021/09/28 00:39:45;;;;;;;16.13;2.95;;;;;;;;;;4936217;28;20420;-72
2021/09/28 00:42:11;;;;;;;19.17;3.25;;;;;;;;;;4934855;29;20035;-72
2021/09/28 00:44:43;;;;;;;24.75;3.53;;;;;;;;;;4930776;29;20028;-73
2021/09/28 00:47:10;;;;;;;19.00;3.78;;;;;;;;;;4933247;29;20546;-73
2021/09/28 00:49:39;;;;;;;17.08;4.18;;;;;;;;;;4932326;29;20090;-73
2021/09/28 00:52:06;;;;;;;18.30;3.10;;;;;;;;;;4961757;28;20072;-74
2021/09/28 00:54:32;;;;;;;18.52;3.15;;;;;;;;;;4929563;29;20032;-74
2021/09/28 00:56:58;;;;;;;22.73;3.17;;;;;;;;;;4931833;28;20102;-74
2021/09/28 00:59:24;;;;;;;16.67;3.25;;;;;;;;;;4935368;29;20115;-74
2021/09/28 01:01:50;;;;;;;18.63;2.97;;;;;;;;;;4935661;29;20114;-74
2021/09/28 01:04:16;;;;;;;17.13;2.95;;;;;;;;;;4932822;28;20070;-74
2021/09/28 01:06:46;;;;;;;15.02;2.78;;;;;;;;;;4933986;29;20048;-74
2021/09/28 01:09:13;;;;;;;20.27;3.33;;;;;;;;;;4935277;29;20400;-74
2021/09/28 01:11:39;;;;;;;17.88;3.30;;;;;;;;;;4934661;29;20035;-74
2021/09/28 01:14:06;;;;;;;18.30;3.88;;;;;;;;;;4963945;28;20035;-74
2021/09/28 01:16:32;;;;;;;24.55;3.30;;;;;;;;;;4930460;29;20032;-74
2021/09/28 01:18:58;;;;;;;23.20;2.80;;;;;;;;;;4940856;29;20042;-74
2021/09/28 01:21:25;;;;;;;15.20;4.85;;;;;;;;;;4937930;29;20086;-74
2021/09/28 01:23:51;;;;;;;13.25;3.63;;;;;;;;;;4933607;29;20461;-75
2021/09/28 01:26:18;;;;;;;18.38;3.45;;;;;;;;;;4963761;28;20026;-74
2021/09/28 01:28:45;;;;;;;18.77;3.63;;;;;;;;;;4934257;29;20131;-74
2021/09/28 01:31:11;;;;;;;12.75;3.03;;;;;;;;;;4934570;29;20032;-74
2021/09/28 01:33:37;;;;;;;15.57;3.40;;;;;;;;;;4933104;29;20027;-74
2021/09/28 01:36:04;;;;;;;20.77;3.33;;;;;;;;;;4932072;29;20059;-74
2021/09/28 01:38:31;;;;;;;14.20;2.47;;;;;;;;;;4933446;29;20063;-74
2021/09/28 01:40:57;;;;;;;19.92;3.63;;;;;;;;;;4933931;29;20024;-73
2021/09/28 01:43:23;;;;;;;14.38;2.95;;;;;;;;;;4933453;29;20024;-73
2021/09/28 01:45:55;;;;;;;16.27;3.28;;;;;;;;;;4932166;29;20032;-73
2021/09/28 01:48:21;;;;;;;16.40;3.10;;;;;;;;;;4933915;29;20036;-74
2021/09/28 01:50:47;;;;;;;20.73;4.45;;;;;;;;;;4934169;29;20063;-74
2021/09/28 01:53:13;;;;;;;20.60;3.22;;;;;;;;;;4933004;29;20035;-74
2021/09/28 01:55:39;;;;;;;21.63;3.30;;;;;;;;;;4933678;29;20037;-74
2021/09/28 01:58:06;;;;;;;15.73;3.15;;;;;;;;;;4935691;29;20083;-73
2021/09/28 02:00:32;;;;;;;22.63;3.60;;;;;;;;;;4934593;29;20028;-74
2021/09/28 02:03:00;;;;;;;23.98;3.72;;;;;;;;;;4930584;29;20027;-76
2021/09/28 02:05:26;;;;;;;20.55;3.08;;;;;;;;;;4932139;29;20058;-74
2021/09/28 02:07:52;;;;;;;23.83;3.50;;;;;;;;;;4934558;29;20109;-75
2021/09/28 02:10:18;;;;;;;21.60;4.80;;;;;;;;;;4932851;29;20023;-74
2021/09/28 02:12:45;;;;;;;16.33;3.40;;;;;;;;;;4962750;28;20432;-74
2021/09/28 02:15:11;;;;;;;15.77;2.72;;;;;;;;;;4932323;29;20515;-73
2021/09/28 02:17:37;;;;;;;19.55;3.38;;;;;;;;;;4936710;29;20031;-74
2021/09/28 02:20:03;;;;;;;17.10;3.03;;;;;;;;;;4934012;29;20031;-74
2021/09/28 02:22:29;;;;;;;18.42;3.47;;;;;;;;;;4934306;29;20031;-75
2021/09/28 02:24:55;;;;;;;18.90;4.28;;;;;;;;;;4932431;29;20039;-74
2021/09/28 02:27:21;;;;;;;15.32;3.17;;;;;;;;;;4933303;29;20028;-73
2021/09/28 02:29:47;;;;;;;15.07;3.30;;;;;;;;;;4925997;29;20032;-74
2021/09/28 02:32:13;;;;;;;19.25;3.40;;;;;;;;;;4926916;29;20027;-74
2021/09/28 02:34:39;;;;;;;16.38;3.13;;;;;;;;;;4933576;29;20024;-74
2021/09/28 02:37:08;;;;;;;16.83;3.75;;;;;;;;;;4952930;28;20051;-73
2021/09/28 02:39:37;;;;;;;16.00;2.72;;;;;;;;;;4932952;29;20028;-73
2021/09/28 02:42:03;;;;;;;21.27;3.75;;;;;;;;;;4933538;29;20444;-73
2021/09/28 02:44:29;;;;;;;14.07;4.00;;;;;;;;;;4935216;29;20042;-73
2021/09/28 02:46:55;;;;;;;12.05;3.00;;;;;;;;;;4932962;28;20035;-73
2021/09/28 02:49:21;;;;;;;16.98;3.60;;;;;;;;;;4933398;29;20496;-74
2021/09/28 02:51:47;;;;;;;19.95;3.30;;;;;;;;;;4932926;29;20495;-73
2021/09/28 02:54:13;;;;;;;20.08;3.30;;;;;;;;;;4934806;29;20504;-73
2021/09/28 02:56:39;;;;;;;20.50;3.17;;;;;;;;;;4932583;29;20047;-73
2021/09/28 02:59:05;;;;;;;16.60;3.28;;;;;;;;;;4932369;29;20035;-73
2021/09/28 03:01:31;;;;;;;13.55;2.70;;;;;;;;;;4932674;29;20020;-73
2021/09/28 03:03:57;;;;;;;26.35;4.80;;;;;;;;;;4932425;29;20056;-74
2021/09/28 03:06:23;;;;;;;17.17;3.10;;;;;;;;;;4931691;29;20028;-73
2021/09/28 03:08:49;;;;;;;16.88;4.03;;;;;;;;;;4932450;29;20042;-74
2021/09/28 03:11:15;;;;;;;13.07;3.00;;;;;;;;;;4925102;29;20024;-73
2021/09/28 03:13:41;;;;;;;19.75;3.25;;;;;;;;;;4963335;28;20129;-73
2021/09/28 03:16:07;;;;;;;19.17;3.10;;;;;;;;;;4923160;29;20023;-74
2021/09/28 03:18:34;;;;;;;15.63;3.72;;;;;;;;;;4930329;29;20028;-74
2021/09/28 03:21:00;;;;;;;17.08;3.53;;;;;;;;;;4932664;29;20106;-73
2021/09/28 03:23:26;;;;;;;17.83;3.30;;;;;;;;;;4961932;28;20030;-73
2021/09/28 03:25:52;;;;;;;15.27;3.35;;;;;;;;;;4932175;29;20114;-73
2021/09/28 03:28:18;;;;;;;17.60;3.25;;;;;;;;;;4930743;29;20031;-73
2021/09/28 03:30:44;;;;;;;14.15;3.35;;;;;;;;;;4933708;29;20111;-74
2021/09/28 03:33:10;;;;;;;23.17;3.42;;;;;;;;;;4933116;29;20031;-74
2021/09/28 03:35:36;;;;;;;15.65;3.75;;;;;;;;;;4930561;29;20046;-73
2021/09/28 03:38:02;;;;;;;17.65;3.42;;;;;;;;;;4933265;29;20103;-73
2021/09/28 03:40:30;;;;;;;12.30;3.35;;;;;;;;;;4933545;29;20036;-73
2021/09/28 03:42:56;;;;;;;22.17;3.75;;;;;;;;;;4931931;29;20023;-73
2021/09/28 03:45:22;;;;;;;19.70;2.97;;;;;;;;;;4930810;28;20032;-73
2021/09/28 03:47:48;;;;;;;16.40;2.90;;;;;;;;;;4931932;29;20114;-73
2021/09/28 03:50:14;;;;;;;17.35;3.65;;;;;;;;;;4949452;29;20122;-74
2021/09/28 03:52:40;;;;;;;14.90;3.45;;;;;;;;;;4934602;29;20031;-73
2021/09/28 03:55:07;;;;;;;18.25;3.20;;;;;;;;;;4929625;29;20024;-73
2021/09/28 03:57:33;;;;;;;16.02;3.83;;;;;;;;;;4935020;29;20023;-73
2021/09/28 04:00:01;;;;;;;13.95;3.67;;;;;;;;;;4933605;29;20040;-73
2021/09/28 04:02:27;;;;;;;29.52;4.55;;;;;;;;;;4935318;29;20027;-74
2021/09/28 04:04:53;;;;;;;17.65;5.68;;;;;;;;;;4937975;29;20090;-73
2021/09/28 04:07:19;;;;;;;16.45;3.35;;;;;;;;;;4935436;29;20036;-73
2021/09/28 04:09:45;;;;;;;24.23;4.22;;;;;;;;;;4938420;29;20038;-74
2021/09/28 04:12:11;;;;;;;18.65;5.10;;;;;;;;;;4935726;29;20480;-73
2021/09/28 04:14:37;;;;;;;12.27;2.95;;;;;;;;;;4940572;29;20107;-73
2021/09/28 04:17:04;;;;;;;17.48;3.55;;;;;;;;;;4935252;29;20032;-73
2021/09/28 04:19:30;;;;;;;19.80;3.75;;;;;;;;;;4931978;29;20432;-73
2021/09/28 04:21:56;;;;;;;19.98;3.95;;;;;;;;;;4933873;29;20092;-74
2021/09/28 04:24:22;;;;;;;14.88;3.22;;;;;;;;;;4935713;29;20036;-73
2021/09/28 04:26:48;;;;;;;11.55;3.20;;;;;;;;;;4930723;29;20030;-73
2021/09/28 04:29:14;;;;;;;20.55;3.45;;;;;;;;;;4932587;29;20083;-73
2021/09/28 04:31:40;;;;;;;13.77;3.58;;;;;;;;;;4961330;28;20031;-73
2021/09/28 04:34:06;;;;;;;16.77;3.60;;;;;;;;;;4935293;29;20083;-73
2021/09/28 04:36:32;;;;;;;10.55;2.72;;;;;;;;;;4933870;29;20043;-73
2021/09/28 04:38:58;;;;;;;13.52;3.83;;;;;;;;;;4935477;29;20019;-73
2021/09/28 04:41:24;;;;;;;18.55;3.88;;;;;;;;;;4940407;29;20056;-73
2021/09/28 04:43:50;;;;;;;18.23;3.38;;;;;;;;;;4933161;29;20034;-73
2021/09/28 04:46:16;;;;;;;15.35;3.67;;;;;;;;;;4932257;29;20496;-73
2021/09/28 04:48:44;;;;;;;20.50;3.08;;;;;;;;;;4933304;29;20032;-74
2021/09/28 04:51:10;;;;;;;19.80;3.97;;;;;;;;;;4950590;28;20036;-73
2021/09/28 04:53:36;;;;;;;16.52;4.05;;;;;;;;;;4934983;29;20032;-73
2021/09/28 04:56:02;;;;;;;18.23;3.15;;;;;;;;;;4936391;29;20047;-73
2021/09/28 04:58:28;;;;;;;14.50;3.78;;;;;;;;;;4935373;29;20497;-73
2021/09/28 05:00:54;;;;;;;15.80;3.55;;;;;;;;;;4934443;29;20035;-73
2021/09/28 05:03:20;;;;;;;13.95;3.95;;;;;;;;;;4931512;29;20504;-73
2021/09/28 05:05:47;;;;;;;16.70;3.40;;;;;;;;;;4932821;29;20043;-73
2021/09/28 05:08:13;;;;;;;19.92;6.15;;;;;;;;;;4940220;29;20030;-73
2021/09/28 05:10:39;;;;;;;12.57;3.13;;;;;;;;;;4935464;28;20066;-73
2021/09/28 05:13:05;;;;;;;14.48;4.10;;;;;;;;;;4934703;29;20446;-73
2021/09/28 05:15:32;;;;;;;19.60;3.60;;;;;;;;;;4932145;29;20564;-74
2021/09/28 05:17:58;;;;;;;25.70;4.90;;;;;;;;;;4934638;28;20111;-73
2021/09/28 05:20:24;;;;;;;13.88;3.33;;;;;;;;;;4924466;29;20024;-73
2021/09/28 05:22:50;;;;;;;18.08;3.85;;;;;;;;;;4931544;29;20070;-73
2021/09/28 05:25:16;;;;;;;15.05;4.03;;;;;;;;;;4934556;29;20123;-73
2021/09/28 05:27:42;;;;;;;16.20;3.75;;;;;;;;;;4961291;28;20052;-74
2021/09/28 05:30:08;;;;;;;10.45;3.40;;;;;;;;;;4935972;29;20137;-74
2021/09/28 05:32:34;;;;;;;25.65;4.63;;;;;;;;;;4933830;29;20549;-73
2021/09/28 05:35:01;;;;;;;18.75;3.78;;;;;;;;;;4931332;29;20039;-73
2021/09/28 05:37:27;;;;;;;13.32;3.92;;;;;;;;;;4933819;29;20043;-73
2021/09/28 05:39:53;;;;;;;13.90;3.22;;;;;;;;;;4934502;29;20028;-74
2021/09/28 05:42:19;;;;;;;17.23;3.90;;;;;;;;;;4933795;29;20055;-73
2021/09/28 05:44:45;;;;;;;13.82;3.83;;;;;;;;;;4936795;29;20043;-73
2021/09/28 05:47:11;;;;;;;15.07;4.40;;;;;;;;;;4933688;29;20027;-73
2021/09/28 05:49:39;;;;;;;15.90;5.75;;;;;;;;;;4935310;29;20123;-73
2021/09/28 05:52:07;;;;;;;20.75;4.60;;;;;;;;;;4934200;29;20132;-73
2021/09/28 05:54:36;;;;;;;19.42;4.97;;;;;;;;;;4932930;29;20028;-73
2021/09/28 05:57:03;;;;;;;16.10;3.83;;;;;;;;;;4932731;29;20079;-73
2021/09/28 05:59:29;;;;;;;19.98;4.00;;;;;;;;;;4934204;28;20087;-72
2021/09/28 06:01:55;;;;;;;15.65;3.38;;;;;;;;;;4933700;29;20595;-72
2021/09/28 06:04:21;;;;;;;12.25;3.65;;;;;;;;;;4929626;29;20055;-72
2021/09/28 06:06:47;;;;;;;25.58;4.43;;;;;;;;;;4931637;29;20031;-73
2021/09/28 06:09:13;;;;;;;24.20;4.80;;;;;;;;;;4933440;28;20050;-73
2021/09/28 06:11:41;;;;;;;16.58;4.25;;;;;;;;;;4934969;29;20028;-72
2021/09/28 06:14:07;;;;;;;20.05;4.47;;;;;;;;;;4960883;28;20019;-73
2021/09/28 06:16:33;;;;;;;18.05;3.88;;;;;;;;;;4931398;29;20121;-72
2021/09/28 06:18:59;;;;;;;23.70;4.38;;;;;;;;;;4932802;29;20066;-73
2021/09/28 06:21:25;;;;;;;26.40;5.13;;;;;;;;;;4933701;29;20032;-72
2021/09/28 06:23:53;;;;;;;20.58;4.35;;;;;;;;;;4935464;28;20024;-72
2021/09/28 06:26:20;;;;;;;15.35;4.05;;;;;;;;;;4984545;23;20294;-71
2021/09/28 06:28:46;;;;;;;18.50;4.28;;;;;;;;;;4956057;28;20037;-73
2021/09/28 06:31:12;;;;;;;14.65;3.92;;;;;;;;;;4942389;28;20039;-73
2021/09/28 06:33:38;;;;;;;13.80;4.25;;;;;;;;;;4952387;28;20031;-73
2021/09/28 06:36:05;;;;;;;19.70;4.15;;;;;;;;;;4947615;28;20110;-72
2021/09/28 06:38:31;;;;;;;17.48;4.43;;;;;;;;;;4944185;28;20034;-72
2021/09/28 06:40:58;;;;;;;16.45;4.25;;;;;;;;;;4952162;28;20520;-73
2021/09/28 06:43:24;;;;;;;13.88;3.78;;;;;;;;;;4952558;28;20031;-72
2021/09/28 06:45:50;;;;;;;15.63;3.80;;;;;;;;;;4949409;28;20027;-72
2021/09/28 06:48:18;;;;;;;16.00;4.38;;;;;;;;;;4950908;29;20027;-72
2021/09/28 06:50:44;;;;;;;19.85;4.22;;;;;;;;;;4951640;28;20411;-72
2021/09/28 06:53:10;;;;;;;22.48;3.80;;;;;;;;;;4951220;28;20450;-72
2021/09/28 06:55:37;;;;;;;22.63;5.57;;;;;;;;;;4936683;28;20032;-72
2021/09/28 06:58:04;;;;;;;15.77;3.88;;;;;;;;;;4946381;28;20166;-72
2021/09/28 07:00:35;;;;;;;22.08;4.25;;;;;;;;;;4938712;29;20020;-72
2021/09/28 07:03:01;;;;;;;20.87;4.17;;;;;;;;;;4933717;29;20031;-72
2021/09/28 07:05:27;;;;;;;21.88;5.15;;;;;;;;;;4948147;28;20052;-72
2021/09/28 07:07:53;;;;;;;14.43;4.53;;;;;;;;;;4952399;28;20038;-72
2021/09/28 07:10:19;;;;;;;17.48;4.57;;;;;;;;;;4933325;28;20034;-72
2021/09/28 07:12:45;;;;;;;17.23;4.38;;;;;;;;;;4949977;29;20046;-72
2021/09/28 07:15:12;;;;;;;17.90;4.05;;;;;;;;;;4946331;28;20023;-72
2021/09/28 07:17:38;;;;;;;16.30;4.57;;;;;;;;;;4948326;28;20024;-72
2021/09/28 07:20:05;;;;;;;17.80;4.75;;;;;;;;;;4951302;28;20417;-72
2021/09/28 07:22:31;;;;;;;14.35;4.30;;;;;;;;;;4946796;28;20023;-72
2021/09/28 07:24:58;;;;;;;17.70;4.57;;;;;;;;;;4952282;28;20039;-73
2021/09/28 07:27:24;;;;;;;18.35;5.22;;;;;;;;;;4953111;28;20067;-72
2021/09/28 07:29:50;;;;;;;15.95;4.85;;;;;;;;;;4950978;28;20055;-72
2021/09/28 07:32:16;;;;;;;15.13;4.00;;;;;;;;;;4938572;29;20450;-72
2021/09/28 07:34:43;;;;;;;21.02;4.70;;;;;;;;;;4946227;29;20034;-72
2021/09/28 07:37:09;;;;;;;17.15;5.85;;;;;;;;;;4944288;28;20431;-72
2021/09/28 07:39:35;;;;;;;26.20;7.15;;;;;;;;;;4946399;28;20027;-71
2021/09/28 07:42:01;;;;;;;20.90;4.95;;;;;;;;;;4955428;28;20031;-71
2021/09/28 07:44:27;;;;;;;17.40;4.43;;;;;;;;;;4952721;28;20020;-71
2021/09/28 07:46:53;;;;;;;18.13;4.82;;;;;;;;;;4954775;28;20414;-71
2021/09/28 07:49:19;;;;;;;21.15;4.63;;;;;;;;;;4947483;28;20149;-72
2021/09/28 07:51:45;;;;;;;16.10;3.63;;;;;;;;;;4944062;29;20393;-72
2021/09/28 07:54:12;;;;;;;18.67;4.03;;;;;;;;;;4949862;28;20027;-72
2021/09/28 07:56:38;;;;;;;11.48;4.15;;;;;;;;;;4948530;29;20781;-71
2021/09/28 07:59:07;;;;;;;19.85;4.97;;;;;;;;;;4950365;28;20430;-71
2021/09/28 08:01:33;;;;;;;17.52;4.72;;;;;;;;;;4954846;28;20530;-72
2021/09/28 08:03:59;;;;;;;23.25;4.38;;;;;;;;;;4951142;28;20461;-71
2021/09/28 08:06:25;;;;;;;15.75;4.07;;;;;;;;;;4951074;29;20082;-72
2021/09/28 08:08:51;;;;;;;22.75;4.35;;;;;;;;;;4946215;28;20044;-71
2021/09/28 08:11:17;;;;;;;19.60;4.78;;;;;;;;;;4941190;29;20027;-71
2021/09/28 08:13:44;;;;;;;17.48;4.40;;;;;;;;;;4948411;28;20528;-71
2021/09/28 08:16:10;;;;;;;19.70;4.30;;;;;;;;;;4940583;29;20065;-71
2021/09/28 08:18:36;;;;;;;20.27;4.95;;;;;;;;;;4954049;28;20042;-72
2021/09/28 08:21:02;;;;;;;22.98;4.32;;;;;;;;;;4948877;28;20409;-71
2021/09/28 08:23:29;;;;;;;18.23;3.92;;;;;;;;;;4954692;28;20032;-71
2021/09/28 08:31:06;;;;;;;24.30;4.65;;;;;;;;;;4944843;29;20533;-71
2021/09/28 08:33:33;;;;;;;20.27;4.53;;;;;;;;;;4947033;28;20402;-71
2021/09/28 08:35:59;;;;;;;18.38;5.10;;;;;;;;;;4940098;29;20050;-71
2021/09/28 08:38:28;;;;;;;24.48;4.78;;;;;;;;;;4936131;28;20482;-71
2021/09/28 08:40:54;;;;;;;19.80;5.20;;;;;;;;;;4953114;28;20027;-70
2021/09/28 08:43:20;;;;;;;14.02;3.83;;;;;;;;;;4954849;28;20028;-72
2021/09/28 08:45:46;;;;;;;16.75;4.28;;;;;;;;;;4949582;28;20437;-71
2021/09/28 08:48:16;;;;;;;19.75;4.63;;;;;;;;;;4946336;28;20031;-71
2021/09/28 08:50:49;;;;;;;14.80;4.18;;;;;;;;;;4958759;28;20068;-70
2021/09/28 08:53:16;;;;;;;18.58;3.95;;;;;;;;;;4955388;28;20045;-71
2021/09/28 08:55:42;;;;;;;20.83;4.20;;;;;;;;;;4954217;28;20027;-70
2021/09/28 08:58:28;;;;;;;18.73;4.57;;;;;;;;;;4954979;28;20028;-70
2021/09/28 09:00:54;;;;;;;16.45;4.57;;;;;;;;;;4953258;28;20114;-69
2021/09/28 09:03:24;;;;;;;17.90;4.38;;;;;;;;;;4948775;28;20062;-70
2021/09/28 09:05:51;;;;;;;22.65;4.88;;;;;;;;;;4945422;28;20466;-70
2021/09/28 09:08:22;;;;;;;14.05;3.75;;;;;;;;;;4936786;28;20125;-71
2021/09/28 09:10:48;;;;;;;;;;;;;;;;;;4956950;28;20502;-70
2021/09/28 09:13:31;;;;;;;23.13;4.38;;;;;;;;;;4966940;28;19961;-70
2021/09/28 09:15:57;;;;;;;16.55;3.63;;;;;;;;;;4944871;28;20789;-71
2021/09/28 09:18:24;;;;;;;18.80;3.95;;;;;;;;;;4953174;28;20657;-71
2021/09/28 09:20:50;;;;;;;19.70;3.65;;;;;;;;;;4955238;28;20035;-70
2021/09/28 09:23:16;;;;;;;13.52;3.63;;;;;;;;;;4952394;28;20505;-70
2021/09/28 09:25:42;;;;;;;25.90;5.43;;;;;;;;;;4949865;28;20030;-70
2021/09/28 09:28:37;;;;;;;29.45;7.05;;;;;;;;;;4948503;28;20055;-70
2021/09/28 09:31:07;;;;;;;19.38;4.20;;;;;;;;;;4950975;28;20066;-70
2021/09/28 09:33:33;;;;;;;26.92;4.45;;;;;;;;;;4946292;28;20502;-69
2021/09/28 09:35:59;;;;;;;21.13;3.80;;;;;;;;;;4940120;28;20038;-69
2021/09/28 09:38:25;;;;;;;15.57;2.97;;;;;;;;;;4952165;28;20281;-69
2021/09/28 09:40:52;;;;;;;17.10;2.85;;;;;;;;;;4951323;28;21180;-69
2021/09/28 09:43:32;;;;;;;19.88;3.33;;;;;;;;;;4954162;28;20089;-69
2021/09/28 09:46:07;;;;;;;17.20;3.38;;;;;;;;;;4948803;28;20441;-69
2021/09/28 09:48:34;;;;;;;14.45;3.35;;;;;;;;;;4949977;28;20604;-69
2021/09/28 09:51:06;;;;;;;22.70;3.58;;;;;;;;;;4951559;28;20027;-68
2021/09/28 09:53:33;;;;;;;17.00;3.33;;;;;;;;;;4934229;29;20127;-71
2021/09/28 09:55:59;;;;;;;19.13;3.72;;;;;;;;;;4953398;28;20114;-69
2021/09/28 09:58:25;;;;;;;15.27;3.40;;;;;;;;;;4952414;28;20106;-70
2021/09/28 10:00:54;;;;;;;12.55;3.35;;;;;;;;;;4951835;28;20035;-69
2021/09/28 10:03:20;;;;;;;14.68;4.15;;;;;;;;;;4952005;28;20457;-69
2021/09/28 10:05:46;;;;;;;12.80;2.97;;;;;;;;;;4961168;23;20054;-69
2021/09/28 10:08:13;;;;;;;14.82;3.50;;;;;;;;;;5043150;23;20344;-69
2021/09/28 10:10:40;;;;;;;11.20;2.55;;;;;;;;;;4948476;28;20041;-70
2021/09/28 10:13:07;;;;;;;14.25;2.85;;;;;;;;;;4952476;28;20046;-71
2021/09/28 10:15:33;;;;;;;16.20;3.88;;;;;;;;;;4949575;28;20025;-69
2021/09/28 10:18:00;;;;;;;11.40;3.08;;;;;;;;;;4944500;28;20034;-69
2021/09/28 10:20:26;;;;;;;16.98;2.97;;;;;;;;;;4951248;28;20035;-69
2021/09/28 10:22:55;;;;;;;13.73;2.65;;;;;;;;;;4952121;28;20435;-69
2021/09/28 10:25:21;;;;;;;14.13;2.80;;;;;;;;;;4949703;28;20082;-69
2021/09/28 10:27:48;;;;;;;18.15;2.97;;;;;;;;;;4955737;28;20035;-70
2021/09/28 10:33:02;;;;;;;10.93;2.75;;;;;;;;;;4947971;28;20162;-69
2021/09/28 10:35:29;;;;;;;15.35;3.30;;;;;;;;;;4946595;28;20062;-69
2021/09/28 10:38:04;;;;;;;17.00;2.55;;;;;;;;;;4950756;28;20130;-71
2021/09/28 10:40:33;;;;;;;13.27;2.55;;;;;;;;;;4945469;28;20108;-70
2021/09/28 10:43:00;;;;;;;14.15;3.00;;;;;;;;;;4949959;28;20031;-70
2021/09/28 10:45:29;;;;;;;13.10;2.65;;;;;;;;;;4948315;28;20094;-71
2021/09/28 10:48:10;;;;;;;11.95;2.83;;;;;;;;;;4940617;28;20414;-70
2021/09/28 10:50:41;;;;;;;11.45;2.72;;;;;;;;;;4937496;28;20027;-69
2021/09/28 10:53:07;;;;;;;13.95;2.22;;;;;;;;;;4946208;28;20042;-69
2021/09/28 10:55:40;;;;;;;15.77;2.65;;;;;;;;;;4947859;28;20030;-70
2021/09/28 10:58:11;;;;;;;11.25;2.47;;;;;;;;;;4955605;28;20573;-69
2021/09/28 11:00:40;;;;;;;15.25;2.58;;;;;;;;;;4956653;28;20031;-70
2021/09/28 11:03:08;;;;;;;14.13;3.25;;;;;;;;;;4957590;28;20019;-69
2021/09/28 11:05:44;;;;;;;15.15;2.58;;;;;;;;;;4950710;28;20059;-69
2021/09/28 11:08:12;;;;;;;13.75;2.72;;;;;;;;;;4954192;28;20038;-69
2021/09/28 11:10:39;;;;;;;17.02;3.05;;;;;;;;;;4950722;28;20027;-70
2021/09/28 11:13:09;;;;;;;15.25;2.97;;;;;;;;;;4957379;28;20038;-69
2021/09/28 11:15:35;;;;;;;12.43;2.78;;;;;;;;;;4947162;28;20058;-69
2021/09/28 11:18:07;;;;;;;13.20;2.42;;;;;;;;;;4955113;28;20575;-69
2021/09/28 11:20:34;;;;;;;15.45;2.63;;;;;;;;;;4946029;28;20508;-69
2021/09/28 11:23:02;;;;;;;21.45;2.60;;;;;;;;;;4955976;28;20117;-69
2021/09/28 11:25:28;;;;;;;9.13;2.03;;;;;;;;;;4948381;28;20040;-70
2021/09/28 11:28:04;;;;;;;11.93;2.13;;;;;;;;;;4959828;28;20027;-70
2021/09/28 11:30:34;;;;;;;10.55;2.15;;;;;;;;;;4953518;28;20031;-71
2021/09/28 11:33:04;;;;;;;12.63;2.47;;;;;;;;;;4968541;28;20405;-69
2021/09/28 11:35:30;;;;;;;11.75;2.25;;;;;;;;;;4956398;28;20052;-70
2021/09/28 11:37:57;;;;;;;15.00;2.88;;;;;;;;;;4956790;28;20079;-70
2021/09/28 11:40:27;;;;;;;12.65;1.80;;;;;;;;;;4959118;28;20023;-70
2021/09/28 11:42:54;;;;;;;8.88;2.15;;;;;;;;;;4956556;28;20037;-69
2021/09/28 11:45:29;;;;;;;10.48;1.83;;;;;;;;;;4947677;28;20059;-70
2021/09/28 11:47:56;;;;;;;10.82;2.50;;;;;;;;;;4950745;28;20047;-69
2021/09/28 11:50:24;;;;;;;11.52;2.00;;;;;;;;;;4952981;28;20620;-70
2021/09/28 11:52:50;;;;;;;12.23;2.28;;;;;;;;;;4950614;28;20042;-68
2021/09/28 11:55:23;;;;;;;9.68;1.88;;;;;;;;;;4953057;28;20450;-70
2021/09/28 11:57:50;;;;;;;9.82;2.22;;;;;;;;;;4957581;28;20110;-71
2021/09/28 12:00:16;;;;;;;14.93;2.15;;;;;;;;;;4955970;28;20019;-70
2021/09/28 12:02:42;;;;;;;10.27;1.80;;;;;;;;;;4957652;28;20203;-70
2021/09/28 12:05:34;;;;;;;9.65;1.98;;;;;;;;;;4948036;28;20506;-73
2021/09/28 12:08:00;;;;;;;14.73;1.70;;;;;;;;;;4954790;28;20059;-71
2021/09/28 12:10:28;;;;;;;11.30;1.95;;;;;;;;;;4952249;28;20027;-71
2021/09/28 12:12:54;;;;;;;8.82;2.15;;;;;;;;;;4952576;28;20032;-69
2021/09/28 12:15:20;;;;;;;7.45;1.73;;;;;;;;;;4950421;28;20035;-69
2021/09/28 12:17:48;;;;;;;9.45;2.67;;;;;;;;;;4952412;28;20025;-70
2021/09/28 12:20:16;;;;;;;13.15;2.65;;;;;;;;;;4951853;28;20039;-70
2021/09/28 12:22:42;;;;;;;12.93;2.15;;;;;;;;;;4954095;28;20062;-70
2021/09/28 12:25:13;;;;;;;12.18;2.10;;;;;;;;;;4950391;28;20035;-70
2021/09/28 12:27:50;;;;;;;11.77;2.22;;;;;;;;;;4951623;28;20106;-70
2021/09/28 12:30:17;;;;;;;9.73;2.38;;;;;;;;;;4955546;28;20393;-69
2021/09/28 12:32:48;;;;;;;18.75;2.45;;;;;;;;;;4953526;28;20084;-69
2021/09/28 12:35:15;;;;;;;8.18;1.98;;;;;;;;;;4949976;28;20912;-70
2021/09/28 12:37:51;;;;;;;12.85;2.53;;;;;;;;;;4956430;28;20046;-70
2021/09/28 12:40:19;;;;;;;9.25;2.28;;;;;;;;;;4955144;28;20438;-69
2021/09/28 12:42:46;;;;;;;9.35;2.53;;;;;;;;;;4955546;28;20026;-69
2021/09/28 12:45:17;;;;;;;10.88;2.08;;;;;;;;;;4949524;28;20031;-70
2021/09/28 12:47:44;;;;;;;11.38;2.42;;;;;;;;;;4954751;28;20034;-69
2021/09/28 12:50:24;;;;;;;11.35;2.15;;;;;;;;;;4950585;28;20415;-68
2021/09/28 12:52:51;;;;;;;9.30;2.78;;;;;;;;;;4954054;28;20525;-70
2021/09/28 12:55:17;;;;;;;11.38;2.17;;;;;;;;;;4944768;28;20035;-69
2021/09/28 12:57:44;;;;;;;10.50;1.88;;;;;;;;;;4955302;28;20035;-70
2021/09/28 13:00:11;;;;;;;8.27;2.00;;;;;;;;;;4946476;28;20082;-69
2021/09/28 13:02:38;;;;;;;6.80;1.80;;;;;;;;;;4946670;28;20023;-68
2021/09/28 13:05:07;;;;;;;12.65;2.53;;;;;;;;;;4949282;28;20497;-71
2021/09/28 13:07:34;;;;;;;10.90;2.75;;;;;;;;;;4945876;28;20043;-68
2021/09/28 13:10:00;;;;;;;10.68;2.78;;;;;;;;;;4949407;28;20034;-68
2021/09/28 13:12:26;;;;;;;9.77;1.90;;;;;;;;;;4951247;28;20042;-68
2021/09/28 13:14:52;;;;;;;17.27;2.30;;;;;;;;;;4949768;28;20062;-69
2021/09/28 13:17:18;;;;;;;10.95;2.03;;;;;;;;;;4950659;28;20023;-68
2021/09/28 13:19:44;;;;;;;10.20;2.05;;;;;;;;;;4944321;28;20037;-68
2021/09/28 13:22:10;;;;;;;8.38;1.83;;;;;;;;;;4951878;28;20066;-69
2021/09/28 13:24:36;;;;;;;11.25;2.40;;;;;;;;;;4948419;28;20051;-70
2021/09/28 13:27:02;;;;;;;8.55;2.13;;;;;;;;;;4946960;28;20108;-69
2021/09/28 13:29:29;;;;;;;5.68;1.55;;;;;;;;;;4948940;28;20023;-68
2021/09/28 13:31:55;;;;;;;9.13;2.40;;;;;;;;;;4945941;28;20034;-68
2021/09/28 13:34:21;;;;;;;14.07;2.17;;;;;;;;;;4946808;28;20023;-69
2021/09/28 13:36:47;;;;;;;8.80;2.22;;;;;;;;;;4946929;28;20033;-70
2021/09/28 13:39:13;;;;;;;8.95;2.65;;;;;;;;;;4947080;28;20027;-69
2021/09/28 13:41:39;;;;;;;7.72;2.03;;;;;;;;;;4950943;28;20043;-69
2021/09/28 13:44:05;;;;;;;6.93;1.90;;;;;;;;;;4952096;28;20031;-68
2021/09/28 13:46:31;;;;;;;9.23;2.20;;;;;;;;;;4948893;28;20031;-69
2021/09/28 13:48:58;;;;;;;7.10;1.83;;;;;;;;;;4949577;28;20065;-69
2021/09/28 13:51:24;;;;;;;6.60;2.22;;;;;;;;;;4955094;28;20074;-69
2021/09/28 13:53:50;;;;;;;12.98;2.78;;;;;;;;;;4947943;28;20039;-69
2021/09/28 13:56:16;;;;;;;12.82;2.80;;;;;;;;;;4947292;28;20247;-69
2021/09/28 13:58:42;;;;;;;9.07;1.88;;;;;;;;;;4946242;29;20059;-70
2021/09/28 14:01:08;;;;;;;9.98;2.03;;;;;;;;;;4957591;28;20057;-70
2021/09/28 14:03:34;;;;;;;10.48;2.40;;;;;;;;;;4949961;28;20087;-69
2021/09/28 14:06:00;;;;;;;8.10;2.47;;;;;;;;;;4947644;28;20035;-68
2021/09/28 14:08:26;;;;;;;6.50;2.20;;;;;;;;;;4945814;28;20050;-69
2021/09/28 14:10:52;;;;;;;7.78;1.77;;;;;;;;;;4957990;28;20035;-69
2021/09/28 14:13:18;;;;;;;14.20;2.75;;;;;;;;;;4952074;28;20031;-69
2021/09/28 14:15:44;;;;;;;9.13;2.10;;;;;;;;;;4945229;28;20032;-69
2021/09/28 14:18:10;;;;;;;9.77;1.92;;;;;;;;;;4955289;28;20131;-69
2021/09/28 14:20:37;;;;;;;6.03;1.90;;;;;;;;;;4949524;28;20490;-69
2021/09/28 14:23:03;;;;;;;16.77;3.88;;;;;;;;;;4951503;28;20027;-68
2021/09/28 14:25:29;;;;;;;10.73;2.30;;;;;;;;;;4946857;28;20580;-70
2021/09/28 14:27:55;;;;;;;14.85;3.00;;;;;;;;;;4946564;28;20045;-68
2021/09/28 14:30:21;;;;;;;6.60;2.03;;;;;;;;;;4948389;28;20101;-68
2021/09/28 14:32:47;;;;;;;9.10;2.78;;;;;;;;;;4954126;28;20028;-69
2021/09/28 14:35:13;;;;;;;6.30;2.10;;;;;;;;;;4938607;28;20478;-68
2021/09/28 14:37:39;;;;;;;6.30;2.03;;;;;;;;;;4944203;28;20134;-68